createdAt,value
2017-07-05T00:01:00.098Z,14.60
2017-07-05T00:03:29.512Z,14.60
2017-07-05T00:05:58.937Z,14.60
2017-07-05T00:08:27.069Z,14.60
2017-07-05T00:10:55.321Z,14.60
2017-07-05T00:13:26.507Z,14.60
2017-07-05T00:15:54.713Z,14.60
2017-07-05T00:18:22.973Z,14.60
2017-07-05T00:20:52.243Z,14.60
2017-07-05T00:23:21.375Z,14.60
2017-07-05T00:25:49.628Z,14.60
2017-07-05T00:28:19.589Z,14.60
2017-07-05T00:30:48.113Z,14.60
2017-07-05T00:33:16.609Z,14.60
2017-07-05T00:35:45.485Z,14.60
2017-07-05T00:38:16.081Z,14.60
2017-07-05T00:40:44.247Z,14.60
2017-07-05T00:46:13.062Z,14.50
2017-07-05T00:48:41.175Z,14.50
2017-07-05T00:51:13.934Z,14.50
2017-07-05T00:53:42.080Z,14.50
2017-07-05T00:56:12.246Z,14.40
2017-07-05T00:58:40.479Z,14.40
2017-07-05T01:01:10.648Z,14.40
2017-07-05T01:03:38.792Z,14.40
2017-07-05T01:06:08.821Z,14.40
2017-07-05T01:08:38.854Z,14.40
2017-07-05T01:11:07.420Z,14.40
2017-07-05T01:13:35.555Z,14.30
2017-07-05T01:16:05.461Z,14.30
2017-07-05T01:18:33.700Z,14.30
2017-07-05T01:21:02.827Z,14.30
2017-07-05T01:23:31.902Z,14.30
2017-07-05T01:26:00.702Z,14.40
2017-07-05T01:28:42.904Z,14.40
2017-07-05T01:31:11.901Z,14.40
2017-07-05T01:33:40.179Z,14.40
2017-07-05T01:36:08.323Z,14.40
2017-07-05T01:38:36.630Z,14.40
2017-07-05T01:41:05.985Z,14.30
2017-07-05T01:43:34.103Z,14.30
2017-07-05T01:46:02.279Z,14.30
2017-07-05T01:48:30.394Z,14.20
2017-07-05T01:51:00.668Z,14.20
2017-07-05T01:53:38.964Z,14.30
2017-07-05T01:56:07.103Z,14.30
2017-07-05T01:58:38.543Z,14.20
2017-07-05T02:01:06.839Z,14.10
2017-07-05T02:03:35.009Z,14.00
2017-07-05T02:06:03.131Z,13.90
2017-07-05T02:08:31.488Z,13.90
2017-07-05T02:10:59.599Z,13.90
2017-07-05T02:13:27.759Z,13.90
2017-07-05T02:16:10.631Z,13.80
2017-07-05T02:18:38.883Z,13.70
2017-07-05T02:21:07.120Z,13.60
2017-07-05T02:23:35.303Z,13.50
2017-07-05T02:26:03.484Z,13.50
2017-07-05T02:28:31.812Z,13.40
2017-07-05T02:30:59.934Z,13.30
2017-07-05T02:33:28.999Z,13.30
2017-07-05T02:35:57.147Z,13.30
2017-07-05T02:38:31.923Z,13.30
2017-07-05T02:41:11.894Z,13.40
2017-07-05T02:43:40.127Z,13.40
2017-07-05T02:46:09.148Z,13.30
2017-07-05T02:48:37.801Z,13.30
2017-07-05T02:51:05.920Z,13.30
2017-07-05T02:53:34.044Z,13.30
2017-07-05T02:56:02.289Z,13.30
2017-07-05T02:58:31.493Z,13.20
2017-07-05T03:01:00.712Z,13.30
2017-07-05T03:03:29.837Z,13.20
2017-07-05T03:05:58.810Z,13.20
2017-07-05T03:08:29.505Z,13.20
2017-07-05T03:10:57.938Z,13.20
2017-07-05T03:13:27.868Z,13.10
2017-07-05T03:15:59.821Z,13.10
2017-07-05T03:18:28.734Z,13.10
2017-07-05T03:20:57.736Z,13.10
2017-07-05T03:23:26.096Z,13.10
2017-07-05T03:25:54.285Z,13.10
2017-07-05T03:28:23.417Z,13.10
2017-07-05T03:30:51.577Z,13.00
2017-07-05T03:33:19.836Z,13.00
2017-07-05T03:35:48.087Z,13.00
2017-07-05T03:38:16.979Z,13.00
2017-07-05T03:40:45.175Z,13.00
2017-07-05T03:43:13.386Z,13.00
2017-07-05T03:45:42.281Z,13.10
2017-07-05T03:48:13.445Z,13.10
2017-07-05T03:50:46.668Z,13.10
2017-07-05T03:53:15.779Z,13.00
2017-07-05T03:55:43.944Z,13.10
2017-07-05T03:58:12.819Z,13.10
2017-07-05T04:00:41.529Z,13.10
2017-07-05T04:03:13.498Z,13.10
2017-07-05T04:05:44.616Z,13.10
2017-07-05T04:08:13.736Z,13.10
2017-07-05T04:10:41.964Z,13.10
2017-07-05T04:13:10.115Z,13.00
2017-07-05T04:15:51.015Z,13.10
2017-07-05T04:18:19.287Z,13.10
2017-07-05T04:20:48.585Z,13.10
2017-07-05T04:23:18.825Z,13.10
2017-07-05T04:25:47.761Z,13.20
2017-07-05T04:28:16.885Z,13.10
2017-07-05T04:30:47.970Z,13.10
2017-07-05T04:33:18.737Z,13.20
2017-07-05T04:35:49.042Z,13.20
2017-07-05T04:38:17.205Z,13.20
2017-07-05T04:40:45.500Z,13.30
2017-07-05T04:43:13.699Z,13.30
2017-07-05T04:45:42.476Z,13.30
2017-07-05T04:48:11.672Z,13.30
2017-07-05T04:50:39.875Z,13.40
2017-07-05T04:53:11.961Z,13.40
2017-07-05T04:55:43.124Z,13.50
2017-07-05T04:58:11.583Z,13.50
2017-07-05T05:03:48.460Z,13.60
2017-07-05T05:06:16.632Z,13.50
2017-07-05T05:08:44.840Z,13.50
2017-07-05T05:11:13.039Z,13.60
2017-07-05T05:13:46.680Z,13.60
2017-07-05T05:16:15.897Z,13.60
2017-07-05T05:18:46.836Z,13.60
2017-07-05T05:21:15.065Z,13.60
2017-07-05T05:23:43.433Z,13.70
2017-07-05T05:26:13.512Z,13.70
2017-07-05T05:28:42.646Z,13.60
2017-07-05T05:31:12.223Z,13.70
2017-07-05T05:33:40.363Z,13.60
2017-07-05T05:36:10.292Z,13.70
2017-07-05T05:38:38.572Z,13.80
2017-07-05T05:41:06.917Z,13.80
2017-07-05T05:43:36.063Z,13.90
2017-07-05T05:46:04.238Z,14.00
2017-07-05T05:48:32.356Z,14.20
2017-07-05T05:51:00.486Z,14.30
2017-07-05T05:53:28.682Z,14.30
2017-07-05T05:55:57.667Z,14.70
2017-07-05T05:58:25.827Z,14.70
2017-07-05T06:00:53.969Z,14.60
2017-07-05T06:03:22.153Z,14.50
2017-07-05T06:05:50.349Z,14.50
2017-07-05T06:08:18.503Z,14.40
2017-07-05T06:10:47.167Z,14.40
2017-07-05T06:13:15.928Z,14.40
2017-07-05T06:15:44.400Z,14.30
2017-07-05T06:18:13.644Z,14.30
2017-07-05T06:20:41.930Z,14.40
2017-07-05T06:23:10.061Z,14.40
2017-07-05T06:25:38.240Z,14.40
2017-07-05T06:28:07.126Z,14.40
2017-07-05T06:30:35.298Z,14.50
2017-07-05T06:33:04.294Z,14.60
2017-07-05T06:35:32.669Z,14.60
2017-07-05T06:38:00.897Z,14.80
2017-07-05T06:40:29.138Z,15.00
2017-07-05T06:42:58.116Z,15.00
2017-07-05T06:45:26.438Z,15.00
2017-07-05T06:47:54.788Z,15.00
2017-07-05T06:50:23.889Z,14.90
2017-07-05T06:52:56.999Z,14.90
2017-07-05T06:55:25.322Z,14.80
2017-07-05T06:57:53.858Z,14.80
2017-07-05T07:00:22.871Z,14.90
2017-07-05T07:02:51.187Z,14.90
2017-07-05T07:05:19.468Z,14.90
2017-07-05T07:07:47.931Z,14.90
2017-07-05T07:10:16.111Z,14.90
2017-07-05T07:12:44.213Z,15.10
2017-07-05T07:15:12.767Z,15.40
2017-07-05T07:17:41.063Z,15.70
2017-07-05T07:20:09.490Z,16.20
2017-07-05T07:22:37.674Z,16.80
2017-07-05T07:25:05.857Z,17.10
2017-07-05T07:27:33.959Z,17.50
2017-07-05T07:30:02.177Z,17.60
2017-07-05T07:32:30.417Z,18.00
2017-07-05T07:34:58.669Z,18.20
2017-07-05T07:37:26.851Z,18.40
2017-07-05T07:39:55.075Z,18.50
2017-07-05T07:42:23.302Z,18.80
2017-07-05T07:44:51.577Z,18.90
2017-07-05T07:47:21.087Z,18.90
2017-07-05T07:49:49.486Z,18.90
2017-07-05T07:52:17.908Z,18.80
2017-07-05T07:54:46.000Z,18.90
2017-07-05T07:57:14.713Z,19.00
2017-07-05T07:59:42.921Z,19.20
2017-07-05T08:02:11.209Z,19.40
2017-07-05T08:04:40.432Z,19.40
2017-07-05T08:07:08.546Z,19.60
2017-07-05T08:09:37.233Z,19.80
2017-07-05T08:12:05.426Z,20.10
2017-07-05T08:14:34.434Z,20.30
2017-07-05T08:17:02.788Z,20.20
2017-07-05T08:19:31.050Z,20.40
2017-07-05T08:21:59.292Z,20.30
2017-07-05T08:24:28.283Z,19.50
2017-07-05T08:26:56.463Z,19.50
2017-07-05T08:29:24.705Z,19.40
2017-07-05T08:31:53.162Z,19.50
2017-07-05T08:34:21.326Z,19.60
2017-07-05T08:36:49.485Z,19.70
2017-07-05T08:39:18.637Z,19.90
2017-07-05T08:41:49.446Z,20.10
2017-07-05T08:44:19.242Z,20.00
2017-07-05T08:46:47.764Z,19.80
2017-07-05T08:49:16.485Z,19.60
2017-07-05T08:51:47.161Z,19.30
2017-07-05T08:54:17.011Z,19.30
2017-07-05T08:56:46.062Z,19.40
2017-07-05T08:59:15.044Z,19.10
2017-07-05T09:01:43.181Z,19.00
2017-07-05T09:04:11.378Z,19.10
2017-07-05T09:06:39.603Z,19.10
2017-07-05T09:09:09.620Z,19.20
2017-07-05T09:11:37.730Z,19.10
2017-07-05T09:14:05.983Z,18.80
2017-07-05T09:16:34.602Z,18.80
2017-07-05T09:19:02.860Z,18.80
2017-07-05T09:21:31.900Z,18.70
2017-07-05T09:24:00.218Z,18.70
2017-07-05T09:26:28.502Z,19.10
2017-07-05T09:29:04.930Z,19.50
2017-07-05T09:31:33.065Z,19.60
2017-07-05T09:34:02.130Z,19.50
2017-07-05T09:36:33.235Z,19.40
2017-07-05T09:39:01.431Z,19.70
2017-07-05T09:41:29.524Z,19.90
2017-07-05T09:43:57.763Z,20.00
2017-07-05T09:46:26.145Z,20.20
2017-07-05T09:48:54.716Z,20.20
2017-07-05T09:51:26.647Z,20.50
2017-07-05T09:53:57.737Z,20.40
2017-07-05T09:56:26.652Z,21.10
2017-07-05T09:58:54.850Z,21.10
2017-07-05T10:01:24.991Z,21.40
2017-07-05T10:03:53.156Z,21.40
2017-07-05T10:06:21.353Z,21.20
2017-07-05T10:08:50.439Z,21.10
2017-07-05T10:11:18.813Z,20.90
2017-07-05T10:13:47.144Z,20.80
2017-07-05T10:16:15.423Z,20.70
2017-07-05T10:18:44.502Z,20.70
2017-07-05T10:21:13.361Z,20.40
2017-07-05T10:23:43.372Z,20.30
2017-07-05T10:26:11.522Z,20.10
2017-07-05T10:28:40.950Z,20.30
2017-07-05T10:31:10.344Z,20.70
2017-07-05T10:33:43.593Z,21.00
2017-07-05T10:36:13.980Z,21.00
2017-07-05T10:38:42.272Z,20.80
2017-07-05T10:41:10.695Z,20.80
2017-07-05T10:43:40.364Z,20.90
2017-07-05T10:46:08.623Z,21.00
2017-07-05T10:48:36.833Z,21.20
2017-07-05T10:51:06.582Z,21.10
2017-07-05T10:53:35.032Z,21.00
2017-07-05T10:56:04.198Z,20.90
2017-07-05T10:58:34.548Z,20.90
2017-07-05T11:01:03.257Z,20.70
2017-07-05T11:03:31.551Z,20.90
2017-07-05T11:05:59.855Z,21.20
2017-07-05T11:08:29.195Z,21.60
2017-07-05T11:10:57.473Z,21.90
2017-07-05T11:13:25.806Z,22.20
2017-07-05T11:15:54.241Z,22.30
2017-07-05T11:18:22.912Z,22.30
2017-07-05T11:20:52.652Z,21.90
2017-07-05T11:23:31.334Z,21.60
2017-07-05T11:26:00.633Z,21.50
2017-07-05T11:28:29.486Z,21.40
2017-07-05T11:30:57.639Z,21.50
2017-07-05T11:33:25.800Z,21.70
2017-07-05T11:35:54.186Z,22.00
2017-07-05T11:38:22.472Z,22.30
2017-07-05T11:40:50.700Z,22.30
2017-07-05T11:43:18.831Z,22.40
2017-07-05T11:45:54.836Z,22.30
2017-07-05T11:48:23.016Z,22.30
2017-07-05T11:50:52.051Z,22.60
2017-07-05T11:53:20.188Z,22.40
2017-07-05T11:55:51.037Z,22.20
2017-07-05T11:58:21.308Z,22.10
2017-07-05T12:00:50.095Z,22.10
2017-07-05T12:03:18.369Z,21.90
2017-07-05T12:05:49.109Z,22.00
2017-07-05T12:08:20.256Z,22.10
2017-07-05T12:10:48.594Z,22.40
2017-07-05T12:13:16.965Z,22.40
2017-07-05T12:15:56.332Z,22.40
2017-07-05T12:18:24.916Z,22.40
2017-07-05T12:20:54.007Z,22.40
2017-07-05T12:23:23.769Z,22.50
2017-07-05T12:25:53.471Z,22.40
2017-07-05T12:28:25.851Z,22.30
2017-07-05T12:30:55.009Z,22.00
2017-07-05T12:33:23.212Z,22.00
2017-07-05T12:35:51.459Z,21.70
2017-07-05T12:38:20.999Z,21.80
2017-07-05T12:40:50.709Z,21.90
2017-07-05T12:43:19.518Z,21.90
2017-07-05T12:45:54.164Z,22.00
2017-07-05T12:48:23.642Z,21.70
2017-07-05T12:50:52.235Z,21.50
2017-07-05T12:53:20.822Z,21.50
2017-07-05T12:55:50.222Z,21.30
2017-07-05T13:01:14.024Z,21.40
2017-07-05T13:03:44.151Z,21.80
2017-07-05T13:06:13.526Z,22.20
2017-07-05T13:08:45.730Z,22.50
2017-07-05T13:11:16.224Z,22.50
2017-07-05T13:13:44.859Z,22.40
2017-07-05T13:18:47.641Z,22.70
2017-07-05T13:27:15.097Z,23.00
2017-07-05T13:29:44.876Z,22.80
2017-07-05T13:35:13.330Z,22.90
2017-07-05T13:37:41.792Z,22.80
2017-07-05T13:42:50.179Z,22.70
2017-07-05T13:45:18.861Z,22.70
2017-07-05T13:47:47.961Z,22.70
2017-07-05T13:50:35.411Z,22.90
2017-07-05T13:55:40.175Z,23.10
2017-07-05T13:58:09.572Z,23.00
2017-07-05T14:00:37.953Z,22.90
2017-07-05T14:03:06.225Z,23.00
2017-07-05T14:05:35.499Z,23.10
2017-07-05T14:08:04.544Z,22.90
2017-07-05T14:10:32.718Z,22.50
2017-07-05T14:13:03.682Z,22.50
2017-07-05T14:15:31.894Z,22.50
2017-07-05T14:18:01.876Z,22.40
2017-07-05T14:20:30.319Z,22.30
2017-07-05T14:22:58.588Z,22.20
2017-07-05T14:25:27.667Z,22.20
2017-07-05T14:27:55.820Z,22.20
2017-07-05T14:30:24.676Z,22.30
2017-07-05T14:32:55.673Z,22.30
2017-07-05T14:35:23.861Z,22.30
2017-07-05T14:37:52.082Z,22.20
2017-07-05T14:40:20.899Z,22.20
2017-07-05T14:42:49.271Z,22.30
2017-07-05T14:45:17.446Z,22.30
2017-07-05T14:47:46.425Z,22.10
2017-07-05T14:50:15.564Z,22.10
2017-07-05T14:52:43.721Z,21.90
2017-07-05T14:55:16.583Z,21.90
2017-07-05T14:57:44.978Z,21.80
2017-07-05T15:00:15.450Z,21.60
2017-07-05T15:02:43.701Z,21.40
2017-07-05T15:05:13.811Z,21.10
2017-07-05T15:07:42.595Z,21.10
2017-07-05T15:10:11.029Z,21.30
2017-07-05T15:12:39.192Z,21.50
2017-07-05T15:15:07.414Z,21.50
2017-07-05T15:17:35.691Z,21.80
2017-07-05T15:20:04.853Z,22.10
2017-07-05T15:22:34.870Z,22.50
2017-07-05T15:25:03.083Z,22.50
2017-07-05T15:27:31.590Z,22.40
2017-07-05T15:29:59.764Z,22.30
2017-07-05T15:32:33.130Z,22.50
2017-07-05T15:35:01.517Z,22.70
2017-07-05T15:37:31.997Z,22.80
2017-07-05T15:40:01.480Z,23.00
2017-07-05T15:42:29.855Z,23.10
2017-07-05T15:44:59.326Z,23.20
2017-07-05T15:47:27.486Z,23.40
2017-07-05T15:49:55.822Z,23.10
2017-07-05T15:52:26.592Z,22.80
2017-07-05T15:54:55.005Z,22.50
2017-07-05T15:57:24.023Z,22.20
2017-07-05T15:59:54.035Z,22.00
2017-07-05T16:02:22.209Z,21.90
2017-07-05T16:04:50.399Z,21.70
2017-07-05T16:07:18.523Z,21.60
2017-07-05T16:09:46.705Z,21.70
2017-07-05T16:12:18.910Z,21.70
2017-07-05T16:14:47.614Z,21.70
2017-07-05T16:17:15.874Z,21.50
2017-07-05T16:19:44.110Z,21.30
2017-07-05T16:22:25.616Z,21.10
2017-07-05T16:24:53.749Z,21.00
2017-07-05T16:27:24.854Z,21.00
2017-07-05T16:29:55.358Z,20.90
2017-07-05T16:32:23.995Z,20.80
2017-07-05T16:34:52.134Z,20.90
2017-07-05T16:37:26.057Z,21.00
2017-07-05T16:39:55.038Z,21.10
2017-07-05T16:42:23.496Z,20.90
2017-07-05T16:44:52.006Z,20.90
2017-07-05T16:47:20.249Z,20.90
2017-07-05T16:49:48.409Z,20.80
2017-07-05T16:52:16.731Z,20.70
2017-07-05T16:54:49.445Z,20.60
2017-07-05T16:57:17.598Z,20.40
2017-07-05T16:59:45.838Z,20.30
2017-07-05T17:02:19.919Z,20.30
2017-07-05T17:04:50.692Z,20.20
2017-07-05T17:07:25.283Z,20.20
2017-07-05T17:09:53.484Z,20.40
2017-07-05T17:12:21.642Z,20.60
2017-07-05T17:14:49.795Z,20.60
2017-07-05T17:17:18.039Z,20.50
2017-07-05T17:19:46.986Z,20.30
2017-07-05T17:22:16.010Z,20.20
2017-07-05T17:24:46.546Z,20.10
2017-07-05T17:27:19.399Z,20.10
2017-07-05T17:29:48.642Z,20.20
2017-07-05T17:32:21.219Z,20.30
2017-07-05T17:34:49.439Z,20.30
2017-07-05T17:37:17.624Z,20.40
2017-07-05T17:39:48.394Z,20.40
2017-07-05T17:42:16.488Z,20.50
2017-07-05T17:44:45.404Z,20.50
2017-07-05T17:47:13.531Z,20.40
2017-07-05T17:49:42.003Z,20.30
2017-07-05T17:52:10.667Z,20.40
2017-07-05T17:54:38.873Z,20.30
2017-07-05T17:57:13.972Z,20.30
2017-07-05T17:59:45.252Z,20.30
2017-07-05T18:02:14.479Z,19.80
2017-07-05T18:04:42.836Z,19.80
2017-07-05T18:07:11.055Z,19.70
2017-07-05T18:09:43.493Z,19.70
2017-07-05T18:12:20.614Z,19.90
2017-07-05T18:14:48.902Z,20.00
2017-07-05T18:17:21.092Z,20.00
2017-07-05T18:19:55.949Z,19.90
2017-07-05T18:22:24.196Z,19.80
2017-07-05T18:24:53.976Z,19.80
2017-07-05T18:27:22.298Z,19.60
2017-07-05T18:29:53.791Z,19.60
2017-07-05T18:32:24.448Z,19.40
2017-07-05T18:34:58.941Z,19.30
2017-07-05T18:37:28.042Z,19.30
2017-07-05T18:42:41.102Z,19.40
2017-07-05T18:45:09.410Z,19.40
2017-07-05T18:47:44.619Z,19.40
2017-07-05T18:50:22.925Z,19.30
2017-07-05T18:52:55.198Z,19.20
2017-07-05T18:55:26.305Z,19.10
2017-07-05T18:57:54.959Z,19.10
2017-07-05T19:03:25.440Z,18.90
2017-07-05T19:08:59.433Z,18.80
2017-07-05T19:11:27.879Z,18.70
2017-07-05T19:13:58.179Z,18.70
2017-07-05T19:16:26.899Z,18.70
2017-07-05T19:19:11.904Z,18.70
2017-07-05T19:21:41.054Z,18.60
2017-07-05T19:24:21.586Z,18.60
2017-07-05T19:26:50.828Z,18.50
2017-07-05T19:29:19.252Z,18.40
2017-07-05T19:31:50.923Z,18.30
2017-07-05T19:34:25.204Z,18.30
2017-07-05T19:36:54.473Z,18.30
2017-07-05T19:39:27.701Z,18.30
2017-07-05T19:41:56.100Z,18.30
2017-07-05T19:44:24.977Z,18.30
2017-07-05T19:47:24.526Z,18.20
2017-07-05T19:49:54.323Z,18.10
2017-07-05T19:52:27.029Z,18.00
2017-07-05T19:58:17.783Z,17.90
2017-07-05T20:00:47.500Z,17.90
2017-07-05T20:03:16.776Z,17.90
2017-07-05T20:05:46.640Z,17.90
2017-07-05T20:12:01.269Z,17.80
2017-07-05T20:14:32.212Z,17.80
2017-07-05T20:17:01.255Z,17.80
2017-07-05T20:22:30.399Z,17.80
2017-07-05T20:25:02.371Z,17.80
2017-07-05T20:27:39.459Z,17.70
2017-07-05T20:30:11.981Z,17.70
2017-07-05T20:32:40.526Z,17.60
2017-07-05T20:35:09.420Z,17.40
2017-07-05T20:37:38.327Z,17.40
2017-07-05T20:40:06.518Z,17.40
2017-07-05T20:42:53.501Z,17.30
2017-07-05T20:45:21.781Z,17.20
2017-07-05T20:48:29.002Z,17.10
2017-07-05T21:00:17.943Z,16.80
2017-07-05T21:02:47.741Z,16.70
2017-07-05T21:05:17.448Z,16.70
2017-07-05T21:12:33.995Z,16.70
2017-07-05T21:15:11.819Z,16.70
2017-07-05T21:20:40.134Z,16.80
2017-07-05T21:23:09.155Z,16.70
2017-07-05T21:25:37.974Z,16.70
2017-07-05T21:28:07.980Z,16.70
2017-07-05T21:30:36.259Z,16.70
2017-07-05T21:33:08.376Z,16.60
2017-07-05T21:35:36.518Z,16.60
2017-07-05T21:38:06.668Z,16.60
2017-07-05T21:40:36.091Z,16.60
2017-07-05T21:43:04.969Z,16.60
2017-07-05T21:45:37.667Z,16.60
2017-07-05T21:48:07.105Z,16.50
2017-07-05T21:50:36.354Z,16.50
2017-07-05T21:53:06.311Z,16.40
2017-07-05T21:55:34.586Z,16.40
2017-07-05T21:58:03.559Z,16.30
2017-07-05T22:00:31.713Z,16.40
2017-07-05T22:03:04.864Z,16.30
2017-07-05T22:05:35.669Z,16.20
2017-07-05T22:08:03.925Z,16.20
2017-07-05T22:10:32.015Z,16.10
2017-07-05T22:13:01.630Z,16.00
2017-07-05T22:15:29.776Z,16.00
2017-07-05T22:17:59.052Z,16.00
2017-07-05T22:20:30.076Z,15.90
2017-07-05T22:23:03.797Z,15.90
2017-07-05T22:25:38.566Z,15.80
2017-07-05T22:28:06.681Z,15.80
2017-07-05T22:30:34.857Z,15.70
2017-07-05T22:33:03.764Z,15.60
2017-07-05T22:35:32.957Z,15.60
2017-07-05T22:38:01.126Z,15.60
2017-07-05T22:40:30.201Z,15.50
2017-07-05T22:42:58.356Z,15.40
2017-07-05T22:45:43.888Z,15.40
2017-07-05T22:48:15.298Z,15.40
2017-07-05T22:50:43.431Z,15.40
2017-07-05T22:53:11.752Z,15.40
2017-07-05T22:55:40.177Z,15.40
2017-07-05T22:58:08.792Z,15.30
2017-07-05T23:00:36.940Z,15.20
2017-07-05T23:03:05.471Z,15.20
2017-07-05T23:05:36.189Z,15.10
2017-07-05T23:08:04.334Z,15.10
2017-07-05T23:10:32.454Z,15.00
2017-07-05T23:13:00.573Z,14.90
2017-07-05T23:15:28.782Z,14.90
2017-07-05T23:17:56.891Z,14.90
2017-07-05T23:20:32.462Z,14.90
2017-07-05T23:23:02.544Z,14.80
2017-07-05T23:25:30.667Z,14.80
2017-07-05T23:27:59.980Z,14.70
2017-07-05T23:30:34.302Z,14.70
2017-07-05T23:33:05.090Z,14.70
2017-07-05T23:35:51.363Z,14.80
2017-07-05T23:38:19.589Z,14.80
2017-07-05T23:41:10.234Z,14.80
2017-07-05T23:43:43.344Z,14.70
2017-07-05T23:46:25.893Z,14.70
2017-07-05T23:48:58.950Z,14.60
2017-07-05T23:51:35.555Z,14.60
2017-07-05T23:54:03.672Z,14.50
2017-07-05T23:59:45.463Z,14.40
